createdAt,value
2022-11-08T10:16:16.709Z,15.40
2022-11-08T10:21:29.314Z,15.10
2022-11-08T10:27:00.793Z,15.60
2022-11-08T10:32:22.706Z,14.30
2022-11-08T10:37:35.040Z,16.80
2022-11-08T10:42:42.643Z,15.50
2022-11-08T10:47:47.407Z,15.80
2022-11-08T10:52:55.230Z,14.00
2022-11-08T10:57:58.508Z,16.00
2022-11-08T11:03:05.131Z,16.10
2022-11-08T11:08:17.120Z,16.60
2022-11-08T11:13:22.142Z,16.50
2022-11-08T11:18:32.005Z,16.50
2022-11-08T11:23:44.110Z,16.90
2022-11-08T11:29:18.243Z,16.90
2022-11-08T11:34:48.053Z,17.10
2022-11-08T11:40:16.427Z,17.20
2022-11-08T11:45:21.519Z,17.30
2022-11-08T11:50:30.441Z,17.10
2022-11-08T11:55:53.249Z,17.40
2022-11-08T12:01:02.340Z,16.90
2022-11-08T12:06:13.743Z,17.40
2022-11-08T12:11:29.448Z,17.60
2022-11-08T12:16:38.196Z,17.90
2022-11-08T12:21:49.610Z,17.00
2022-11-08T12:26:56.208Z,16.70
2022-11-08T12:32:06.324Z,16.60
2022-11-08T12:37:17.363Z,16.60
2022-11-08T12:42:29.307Z,17.10
2022-11-08T12:47:35.754Z,17.00
2022-11-08T12:52:57.317Z,17.00
2022-11-08T12:58:00.552Z,17.10
2022-11-08T13:03:10.250Z,17.00
2022-11-08T13:08:17.291Z,17.00
2022-11-08T13:13:26.205Z,17.20
2022-11-08T13:18:54.247Z,17.80
2022-11-08T13:24:42.845Z,19.30
2022-11-08T13:29:41.169Z,19.10
2022-11-08T13:34:46.625Z,18.70
2022-11-08T13:40:00.224Z,19.10
2022-11-08T13:45:27.421Z,19.10
2022-11-08T13:50:50.282Z,18.80
2022-11-08T13:55:57.277Z,18.20
2022-11-08T14:01:03.675Z,19.60
2022-11-08T14:06:10.252Z,19.90
2022-11-08T14:11:40.584Z,19.00
2022-11-08T14:16:50.209Z,18.10
2022-11-08T14:21:55.305Z,17.50
2022-11-08T14:26:59.845Z,17.30
2022-11-08T14:32:04.910Z,17.70
2022-11-08T14:37:15.908Z,19.00
2022-11-08T14:42:22.608Z,18.60
2022-11-08T14:47:30.287Z,17.50
2022-11-08T14:52:33.911Z,18.00
2022-11-08T14:57:46.888Z,17.90
2022-11-08T15:02:53.326Z,17.30
2022-11-08T15:07:56.474Z,16.60
2022-11-08T15:13:01.988Z,16.40
2022-11-08T15:18:15.425Z,16.20
2022-11-08T15:23:43.647Z,16.00
2022-11-08T15:29:00.204Z,16.10
2022-11-08T15:34:05.273Z,15.70
2022-11-08T15:39:11.771Z,15.80
2022-11-08T15:44:18.184Z,15.60
2022-11-08T15:49:22.478Z,15.70
2022-11-08T15:54:26.424Z,15.80
2022-11-08T15:59:31.329Z,15.80
2022-11-08T16:04:34.461Z,15.70
2022-11-08T16:09:39.963Z,15.50
2022-11-08T16:14:45.584Z,15.50
2022-11-08T16:19:49.014Z,15.50
2022-11-08T16:24:52.258Z,15.40
2022-11-08T16:30:00.000Z,15.60
2022-11-08T16:35:03.404Z,15.50
2022-11-08T16:40:14.962Z,15.60
2022-11-08T16:45:37.305Z,15.50
2022-11-08T16:50:43.370Z,15.60
2022-11-08T16:55:46.592Z,15.60
2022-11-08T17:00:51.132Z,15.60
2022-11-08T17:05:54.879Z,15.70
2022-11-08T17:10:58.098Z,15.40
2022-11-08T17:16:02.588Z,15.30
2022-11-08T17:21:23.281Z,15.20
2022-11-08T17:26:29.507Z,14.60
2022-11-08T17:31:34.025Z,14.70
2022-11-08T17:36:37.132Z,14.50
2022-11-08T17:41:40.352Z,14.40
2022-11-08T17:46:45.218Z,14.50
2022-11-08T17:51:48.896Z,14.50
2022-11-08T17:56:53.246Z,14.60
2022-11-08T18:01:57.801Z,14.30
2022-11-08T18:07:04.392Z,14.10
2022-11-08T18:12:08.003Z,14.10
2022-11-08T18:17:13.174Z,14.30
2022-11-08T18:22:19.518Z,14.60
2022-11-08T18:27:22.575Z,14.30
2022-11-08T18:32:30.573Z,14.70
2022-11-08T18:37:36.585Z,14.80
2022-11-08T18:42:39.640Z,14.50
2022-11-08T18:47:45.275Z,14.30
2022-11-08T18:52:49.125Z,14.20
2022-11-08T18:57:52.291Z,14.20
2022-11-08T19:02:57.554Z,14.60
2022-11-08T19:08:00.972Z,15.00
2022-11-08T19:13:04.293Z,15.00
2022-11-08T19:18:09.185Z,15.10
2022-11-08T19:23:12.288Z,15.30
2022-11-08T19:28:15.381Z,14.40
2022-11-08T19:33:20.519Z,14.40
2022-11-08T19:38:25.164Z,14.50
2022-11-08T19:43:28.310Z,14.40
2022-11-08T19:48:33.158Z,14.20
2022-11-08T19:53:36.436Z,14.20
2022-11-08T19:58:40.474Z,14.10
2022-11-08T20:03:45.353Z,14.40
2022-11-08T20:08:48.955Z,14.40
2022-11-08T20:13:52.531Z,13.70
2022-11-08T20:18:59.178Z,13.20
2022-11-08T20:24:02.470Z,13.20
2022-11-08T20:29:05.875Z,13.20
2022-11-08T20:34:10.451Z,13.30
2022-11-08T20:39:14.442Z,13.30
2022-11-08T20:44:17.516Z,13.40
2022-11-08T20:49:22.183Z,13.20
2022-11-08T20:54:25.505Z,12.90
2022-11-08T20:59:28.986Z,13.00
2022-11-08T21:04:33.426Z,12.70
2022-11-08T21:09:49.817Z,13.00
2022-11-08T21:14:54.212Z,13.20
2022-11-08T21:19:58.904Z,13.50
2022-11-08T21:25:01.998Z,13.10
2022-11-08T21:30:05.474Z,12.90
2022-11-08T21:35:10.510Z,12.70
2022-11-08T21:40:13.860Z,12.90
2022-11-08T21:45:17.481Z,12.90
2022-11-08T21:50:22.277Z,13.00
2022-11-08T21:55:25.288Z,13.10
2022-11-08T22:00:28.894Z,12.90
2022-11-08T22:05:33.544Z,12.80
2022-11-08T22:10:42.582Z,12.70
2022-11-08T22:15:45.697Z,12.70
2022-11-08T22:21:07.418Z,12.70
2022-11-08T22:26:10.458Z,12.70
2022-11-08T22:31:13.602Z,12.80
2022-11-08T22:36:19.194Z,13.10
2022-11-08T22:41:22.972Z,13.50
2022-11-08T22:46:26.353Z,13.20
2022-11-08T22:51:30.797Z,12.90
2022-11-08T22:56:35.222Z,13.20
2022-11-08T23:01:38.501Z,13.40
2022-11-08T23:06:43.402Z,13.20
2022-11-08T23:12:03.932Z,13.10
2022-11-08T23:17:07.882Z,13.30
2022-11-08T23:22:38.826Z,12.90
2022-11-08T23:27:59.218Z,12.70
2022-11-08T23:33:02.586Z,12.70
2022-11-08T23:38:07.014Z,12.80
2022-11-08T23:43:29.656Z,12.80
2022-11-08T23:48:32.905Z,12.70
2022-11-08T23:53:37.741Z,12.70
2022-11-08T23:58:40.883Z,12.70
